Time;durP1;ratioP1;P1;durP2;ratioP2;P2;SDS_P1;SDS_P2;PMS_P1;PMS_P2;Temp;Humidity;BMP_temperature;BMP_pressure;BME280_temperature;BME280_humidity;BME280_pressure;Samples;Min_cycle;Max_cycle;Signal;HPM_P1;HPM_P2
2023/08/14 00:01:22;;;;;;;9.93;3.50;;;;;;;24.02;66.81;98523.16;5078561;28;20040;-83
2023/08/14 00:04:06;;;;;;;8.25;3.83;;;;;;;24.15;67.06;98516.19;5082680;28;20114;-83
2023/08/14 00:06:50;;;;;;;11.75;4.20;;;;;;;24.16;67.99;98520.47;5080794;28;20086;-83
2023/08/14 00:09:34;;;;;;;14.45;4.22;;;;;;;24.10;69.07;98514.44;5081993;28;20123;-83
2023/08/14 00:12:18;;;;;;;6.93;3.60;;;;;;;24.29;68.45;98516.22;5085359;28;20078;-84
2023/08/14 00:15:02;;;;;;;10.50;4.38;;;;;;;24.13;68.91;98523.75;5084080;28;20089;-83
2023/08/14 00:17:46;;;;;;;15.60;4.78;;;;;;;24.21;69.20;98518.50;5082027;28;20114;-83
2023/08/14 00:20:31;;;;;;;10.93;4.57;;;;;;;24.35;68.73;98513.13;5074830;28;20299;-83
2023/08/14 00:23:15;;;;;;;10.60;4.13;;;;;;;24.32;69.22;98524.44;5076814;28;20074;-83
2023/08/14 00:25:59;;;;;;;10.13;4.10;;;;;;;23.98;70.48;98512.22;5076992;28;20081;-82
2023/08/14 00:28:43;;;;;;;11.55;4.50;;;;;;;23.93;70.39;98510.41;5078405;28;20444;-83
2023/08/14 00:31:27;;;;;;;11.38;4.15;;;;;;;23.94;71.45;98511.19;5081008;28;20027;-84
2023/08/14 00:34:11;;;;;;;11.05;4.00;;;;;;;23.90;72.40;98520.91;5080127;28;20436;-85
2023/08/14 00:36:56;;;;;;;13.10;5.03;;;;;;;23.85;73.07;98518.34;5080191;28;20047;-84
2023/08/14 00:39:40;;;;;;;13.38;4.80;;;;;;;23.76;74.36;98521.69;5078658;28;20371;-84
2023/08/14 00:42:24;;;;;;;12.38;4.25;;;;;;;23.71;75.63;98521.00;5075795;28;20068;-83
2023/08/14 00:45:09;;;;;;;12.68;4.50;;;;;;;23.72;76.55;98515.31;5086241;28;20046;-84
2023/08/14 00:47:54;;;;;;;11.43;4.63;;;;;;;23.66;76.99;98521.88;5084119;28;20157;-85
2023/08/14 00:50:38;;;;;;;12.10;5.05;;;;;;;23.50;78.55;98505.28;5080074;28;20157;-85
2023/08/14 00:53:25;;;;;;;14.43;5.53;;;;;;;23.69;78.74;98507.88;5080130;28;20047;-85
2023/08/14 00:56:10;;;;;;;12.23;5.03;;;;;;;23.40;80.40;98514.28;5082826;28;20458;-85
2023/08/14 00:58:54;;;;;;;11.98;5.30;;;;;;;23.52;80.37;98513.81;5081273;28;20051;-85
2023/08/14 01:01:38;;;;;;;13.10;5.05;;;;;;;23.38;81.46;98505.72;5076659;28;20090;-85
2023/08/14 01:04:22;;;;;;;12.05;5.65;;;;;;;23.45;81.75;98497.31;5081361;28;20169;-84
2023/08/14 01:07:06;;;;;;;13.57;5.00;;;;;;;23.30;82.39;98491.13;5090644;28;20071;-85
2023/08/14 01:09:50;;;;;;;13.75;6.43;;;;;;;23.26;82.62;98484.75;5081877;28;20550;-85
2023/08/14 01:12:56;;;;;;;15.38;5.57;;;;;;;23.31;83.51;98494.59;5074869;28;20125;-85
2023/08/14 01:15:44;;;;;;;14.55;6.03;;;;;;;23.15;84.07;98477.94;5083940;28;20071;-85
2023/08/14 01:18:30;;;;;;;12.55;5.70;;;;;;;22.87;85.31;98478.63;5080219;28;20046;-85
2023/08/14 01:21:54;;;;;;;15.25;6.85;;;;;;;22.92;85.76;98475.88;5081972;28;20043;-84
2023/08/14 01:24:59;;;;;;;9.80;5.82;;;;;;;22.89;86.38;98460.38;5079739;28;20031;-84
2023/08/14 01:27:44;;;;;;;19.80;6.22;;;;;;;22.76;87.03;98437.03;5079038;28;20034;-84
2023/08/14 01:30:28;;;;;;;11.13;5.78;;;;;;;22.66;87.88;98444.13;5082079;28;20445;-85
2023/08/14 01:33:12;;;;;;;16.75;5.97;;;;;;;22.46;89.78;98433.69;5082806;28;20094;-84
2023/08/14 01:36:08;;;;;;;14.02;5.80;;;;;;;22.70;89.65;98439.00;5077512;28;20043;-85
2023/08/14 01:38:58;;;;;;;12.57;5.90;;;;;;;22.83;88.91;98438.25;5076710;28;20039;-85
2023/08/14 01:42:13;;;;;;;10.63;5.50;;;;;;;22.85;88.89;98434.50;5076235;28;20169;-86
2023/08/14 01:45:02;;;;;;;11.07;5.07;;;;;;;22.85;89.59;98429.16;5082092;28;20119;-85
2023/08/14 01:47:48;;;;;;;11.40;5.65;;;;;;;22.71;90.14;98419.19;5076396;28;20047;-84
2023/08/14 01:50:33;;;;;;;14.05;6.13;;;;;;;22.62;91.10;98421.72;5083475;28;20149;-84
2023/08/14 01:53:18;;;;;;;13.15;6.20;;;;;;;22.58;91.41;98415.34;5080733;28;20047;-85
2023/08/14 01:56:02;;;;;;;20.33;7.20;;;;;;;22.71;91.66;98424.53;5082829;28;20055;-85
2023/08/14 01:58:46;;;;;;;12.55;6.00;;;;;;;22.92;90.56;98422.34;5078636;28;20051;-85
2023/08/14 02:01:30;;;;;;;11.35;6.40;;;;;;;22.71;91.22;98419.19;5078091;28;20054;-85
2023/08/14 02:04:14;;;;;;;12.88;6.10;;;;;;;22.80;91.17;98425.47;5080223;28;20131;-85
2023/08/14 02:06:59;;;;;;;12.57;6.30;;;;;;;22.67;91.82;98418.97;5080659;28;20086;-83
2023/08/14 02:09:43;;;;;;;14.85;6.57;;;;;;;22.71;91.94;98413.84;5080251;28;20055;-85
2023/08/14 02:12:30;;;;;;;12.35;5.57;;;;;;;22.88;91.55;98423.22;5079665;28;20097;-84
2023/08/14 02:15:14;;;;;;;12.13;6.40;;;;;;;22.85;91.53;98434.50;5076609;28;20482;-84
2023/08/14 02:17:58;;;;;;;12.45;5.88;;;;;;;22.76;91.91;98423.66;5078260;28;20120;-85
2023/08/14 02:20:46;;;;;;;13.55;5.53;;;;;;;22.85;92.08;98413.91;5076686;28;20070;-84
2023/08/14 02:23:30;;;;;;;15.00;5.75;;;;;;;22.79;92.25;98420.41;5078233;28;20101;-85
2023/08/14 02:26:14;;;;;;;13.00;5.50;;;;;;;22.81;92.26;98402.19;5071940;28;20047;-85
2023/08/14 02:28:58;;;;;;;14.82;6.05;;;;;;;22.78;92.37;98424.16;5081349;28;20470;-85
2023/08/14 02:31:45;;;;;;;10.73;5.22;;;;;;;22.79;92.58;98401.66;5078893;28;20086;-84
2023/08/14 02:34:47;;;;;;;11.85;5.28;;;;;;;22.79;92.98;98388.28;5081672;28;20043;-85
2023/08/14 02:37:31;;;;;;;12.32;5.53;;;;;;;22.82;92.66;98387.72;5076861;28;20043;-84
2023/08/14 02:40:15;;;;;;;7.28;4.65;;;;;;;22.85;92.26;98386.34;5078636;28;20496;-84
2023/08/14 02:43:01;;;;;;;13.02;5.68;;;;;;;22.78;92.51;98376.81;5080016;28;20039;-84
2023/08/14 02:45:45;;;;;;;12.52;5.43;;;;;;;22.80;92.42;98363.16;5079269;28;20043;-85
2023/08/14 02:48:29;;;;;;;11.20;5.72;;;;;;;22.75;92.43;98365.88;5081021;28;20035;-85
2023/08/14 02:51:15;;;;;;;10.18;5.63;;;;;;;22.70;93.06;98368.66;5081866;28;20039;-85
2023/08/14 02:53:59;;;;;;;12.32;6.38;;;;;;;22.77;92.36;98361.03;5080397;28;20509;-85
2023/08/14 02:56:43;;;;;;;13.82;6.45;;;;;;;22.83;92.64;98359.88;5082350;28;20052;-85
2023/08/14 02:59:27;;;;;;;16.02;6.00;;;;;;;22.88;92.80;98351.78;5083534;28;20035;-84
2023/08/14 03:02:12;;;;;;;9.40;6.28;;;;;;;22.93;92.97;98348.22;5082388;28;20558;-84
2023/08/14 03:04:56;;;;;;;12.90;6.85;;;;;;;22.93;93.22;98348.22;5084115;28;20093;-85
2023/08/14 03:07:39;;;;;;;10.57;6.07;;;;;;;22.98;93.12;98350.81;5082565;28;20117;-85
2023/08/14 03:10:25;;;;;;;14.32;6.10;;;;;;;23.04;92.57;98340.81;5077209;28;20119;-84
2023/08/14 03:13:09;;;;;;;10.43;6.38;;;;;;;23.05;92.83;98348.53;5081707;28;20068;-83
2023/08/14 03:15:53;;;;;;;11.75;6.90;;;;;;;22.93;93.08;98346.31;5082371;28;20055;-83
2023/08/14 03:18:38;;;;;;;13.65;6.40;;;;;;;22.95;92.68;98341.47;5083604;28;20051;-83
2023/08/14 03:21:22;;;;;;;15.98;6.07;;;;;;;22.88;93.26;98343.75;5080355;28;20509;-83
2023/08/14 03:24:06;;;;;;;14.85;6.75;;;;;;;22.88;93.54;98340.25;5081472;28;20090;-83
2023/08/14 03:26:50;;;;;;;17.52;6.40;;;;;;;23.05;93.06;98337.81;5080628;28;20047;-83
2023/08/14 03:29:34;;;;;;;13.25;6.97;;;;;;;22.86;92.88;98339.75;5087675;28;20097;-84
2023/08/14 03:32:18;;;;;;;10.38;6.75;;;;;;;23.01;93.06;98331.47;5080874;28;20055;-84
2023/08/14 03:35:03;;;;;;;12.27;6.72;;;;;;;22.80;93.87;98326.47;5082841;28;20058;-83
2023/08/14 03:37:47;;;;;;;9.77;6.63;;;;;;;22.89;93.59;98325.78;5083136;28;20118;-82
2023/08/14 03:40:31;;;;;;;10.55;6.28;;;;;;;22.88;93.56;98327.69;5087995;28;20062;-83
2023/08/14 03:43:15;;;;;;;9.88;6.20;;;;;;;22.70;94.65;98313.28;5082396;28;20047;-83
2023/08/14 03:45:59;;;;;;;10.25;4.88;;;;;;;22.67;94.71;98317.31;5079814;28;20517;-82
2023/08/14 03:48:43;;;;;;;13.65;5.32;;;;;;;22.61;95.36;98310.47;5083817;28;20398;-83
2023/08/14 03:51:27;;;;;;;9.23;4.85;;;;;;;22.65;94.91;98319.50;5076324;28;20047;-82
2023/08/14 03:54:11;;;;;;;8.15;5.03;;;;;;;22.63;94.68;98313.66;5085080;28;20063;-84
2023/08/14 03:56:56;;;;;;;8.73;4.65;;;;;;;22.63;95.04;98310.97;5079130;28;20071;-84
2023/08/14 03:59:40;;;;;;;8.73;5.30;;;;;;;22.52;95.09;98312.22;5089966;28;20102;-84
2023/08/14 04:02:24;;;;;;;9.45;4.68;;;;;;;22.64;95.19;98312.56;5086293;28;20185;-84
2023/08/14 04:05:07;;;;;;;6.38;4.63;;;;;;;22.67;94.95;98317.31;5080980;28;22124;-83
2023/08/14 04:07:51;;;;;;;9.30;4.20;;;;;;;22.62;94.98;98309.41;5083615;28;20071;-83
2023/08/14 04:10:36;;;;;;;10.77;4.55;;;;;;;22.61;95.12;98307.00;5078678;28;20090;-83
2023/08/14 04:13:21;;;;;;;11.55;4.85;;;;;;;22.80;94.38;98305.06;5086215;28;20058;-84
2023/08/14 04:16:05;;;;;;;6.97;3.75;;;;;;;22.85;93.49;98312.22;5080513;28;20153;-84
2023/08/14 04:18:49;;;;;;;9.27;4.20;;;;;;;22.82;94.11;98291.41;5078951;28;20044;-84
2023/08/14 04:21:34;;;;;;;6.32;4.22;;;;;;;22.76;94.19;98298.72;5075969;28;20535;-84
2023/08/14 04:24:17;;;;;;;8.18;3.90;;;;;;;22.67;94.55;98295.94;5087440;28;20051;-84
2023/08/14 04:27:01;;;;;;;8.93;4.25;;;;;;;22.75;94.21;98301.69;5077762;28;20082;-85
2023/08/14 04:29:45;;;;;;;10.52;4.63;;;;;;;22.68;94.69;98297.50;5079258;28;20046;-84
2023/08/14 04:32:29;;;;;;;7.95;4.40;;;;;;;22.74;94.11;98290.22;5079372;28;20097;-84
2023/08/14 04:35:13;;;;;;;9.20;4.93;;;;;;;22.84;93.71;98299.94;5084921;28;20096;-85
2023/08/14 04:37:57;;;;;;;11.45;5.00;;;;;;;22.56;94.55;98296.38;5079020;28;20691;-84
2023/08/14 04:40:41;;;;;;;15.63;5.57;;;;;;;22.57;94.98;98296.09;5080338;28;20051;-85
2023/08/14 04:43:25;;;;;;;14.45;5.47;;;;;;;22.74;93.61;98289.41;5076100;28;20067;-85
2023/08/14 04:46:11;;;;;;;14.00;5.90;;;;;;;23.03;92.90;98294.50;5077144;28;20042;-84
2023/08/14 04:48:56;;;;;;;11.68;5.72;;;;;;;22.70;93.52;98299.09;5081789;28;20497;-84
2023/08/14 04:51:41;;;;;;;11.95;5.55;;;;;;;22.66;94.35;98293.53;5081747;28;20043;-84
2023/08/14 04:54:26;;;;;;;11.50;6.35;;;;;;;22.65;94.61;98282.06;5078795;28;20058;-83
2023/08/14 04:57:10;;;;;;;11.07;6.20;;;;;;;22.70;94.18;98281.19;5080976;28;20170;-84
2023/08/14 04:59:54;;;;;;;11.48;6.15;;;;;;;22.72;94.62;98296.94;5079654;28;20449;-84
2023/08/14 05:02:39;;;;;;;13.45;6.63;;;;;;;22.42;95.12;98296.31;5077187;28;20555;-84
2023/08/14 05:05:23;;;;;;;12.95;6.40;;;;;;;22.65;95.26;98297.28;5082161;28;20394;-84
2023/08/14 05:08:07;;;;;;;13.23;7.00;;;;;;;22.63;95.24;98289.59;5079120;28;20118;-84
2023/08/14 05:10:52;;;;;;;11.60;6.63;;;;;;;22.77;94.78;98283.47;5078820;28;20047;-83
2023/08/14 05:13:37;;;;;;;8.52;6.10;;;;;;;22.70;94.47;98291.88;5077821;28;20574;-84
2023/08/14 05:16:22;;;;;;;13.23;7.18;;;;;;;22.70;95.04;98278.50;5076689;28;20074;-83
2023/08/14 05:19:06;;;;;;;12.45;7.72;;;;;;;22.88;94.52;98282.19;5074833;28;20150;-83
2023/08/14 05:21:50;;;;;;;10.65;6.05;;;;;;;22.78;94.79;98287.72;5085037;28;20087;-83
2023/08/14 05:24:34;;;;;;;13.38;7.03;;;;;;;22.76;95.27;98284.53;5083043;28;20507;-84
2023/08/14 05:27:18;;;;;;;11.18;6.78;;;;;;;22.83;95.40;98285.75;5086107;28;20089;-83
2023/08/14 05:30:03;;;;;;;11.70;6.38;;;;;;;22.70;95.74;98275.03;5079697;28;20047;-83
2023/08/14 05:32:47;;;;;;;12.57;7.55;;;;;;;22.66;96.26;98272.94;5075841;28;20454;-84
2023/08/14 05:35:31;;;;;;;10.60;6.88;;;;;;;22.66;96.20;98272.13;5082329;28;20464;-83
2023/08/14 05:38:15;;;;;;;7.88;6.95;;;;;;;22.61;96.42;98273.03;5078426;28;20051;-83
2023/08/14 05:40:59;;;;;;;9.98;6.75;;;;;;;22.79;96.94;98282.09;5079273;28;20138;-83
2023/08/14 05:43:43;;;;;;;12.40;7.25;;;;;;;22.83;96.61;98274.28;5074193;28;20131;-83
2023/08/14 05:46:27;;;;;;;8.38;6.93;;;;;;;22.97;96.94;98279.63;5078671;28;20062;-83
2023/08/14 05:49:11;;;;;;;11.20;7.15;;;;;;;23.00;96.61;98272.91;5082766;28;20046;-83
2023/08/14 05:51:54;;;;;;;9.60;7.05;;;;;;;23.42;96.02;98279.09;5076528;28;20062;-83
2023/08/14 05:54:39;;;;;;;11.48;7.78;;;;;;;23.61;94.23;98272.84;5078804;28;20044;-84
2023/08/14 05:57:24;;;;;;;11.98;7.75;;;;;;;23.41;95.03;98280.19;5078030;28;20040;-83
2023/08/14 06:00:10;;;;;;;10.82;6.72;;;;;;;23.37;95.00;98279.19;5082323;28;20108;-84
2023/08/14 06:02:55;;;;;;;11.15;7.43;;;;;;;23.41;95.29;98288.22;5079794;28;20390;-82
2023/08/14 06:05:39;;;;;;;8.50;6.68;;;;;;;23.28;95.25;98283.66;5073470;28;20117;-85
2023/08/14 06:08:23;;;;;;;9.38;6.50;;;;;;;23.29;94.88;98282.56;5085110;28;20058;-84
2023/08/14 06:11:07;;;;;;;9.27;7.00;;;;;;;23.21;95.10;98282.16;5075244;28;20044;-83
2023/08/14 06:13:51;;;;;;;10.50;7.05;;;;;;;23.03;96.13;98272.31;5077093;28;20128;-83
2023/08/14 06:16:35;;;;;;;10.80;6.50;;;;;;;23.21;96.04;98274.13;5078095;28;20203;-82
2023/08/14 06:19:19;;;;;;;9.77;6.43;;;;;;;23.29;95.84;98277.22;5078746;28;20413;-81
2023/08/14 06:22:04;;;;;;;11.45;6.95;;;;;;;23.13;96.76;98268.66;5079340;28;20114;-83
2023/08/14 06:24:49;;;;;;;9.98;6.47;;;;;;;23.22;97.03;98272.22;5081972;28;20123;-85
2023/08/14 06:27:33;;;;;;;8.80;6.78;;;;;;;23.39;97.20;98287.75;5075917;28;20116;-82
2023/08/14 06:30:20;;;;;;;12.38;6.88;;;;;;;23.65;96.93;98268.47;5086192;28;20052;-85
2023/08/14 06:33:04;;;;;;;8.10;6.50;;;;;;;23.67;96.46;98277.00;5084282;28;20054;-82
2023/08/14 06:35:48;;;;;;;8.48;7.07;;;;;;;23.70;96.14;98273.69;5082475;28;20047;-82
2023/08/14 06:38:32;;;;;;;8.45;6.82;;;;;;;23.67;95.92;98266.28;5081552;28;20136;-82
2023/08/14 06:41:16;;;;;;;7.72;5.90;;;;;;;23.74;96.29;98272.00;5084588;28;20108;-82
2023/08/14 06:44:00;;;;;;;9.73;5.95;;;;;;;23.69;96.87;98274.78;5080850;28;20040;-82
2023/08/14 06:46:44;;;;;;;6.43;5.57;;;;;;;23.87;96.45;98269.59;5078711;28;20081;-82
2023/08/14 06:49:28;;;;;;;7.30;5.60;;;;;;;23.85;95.85;98271.78;5082789;28;20042;-83
2023/08/14 06:52:13;;;;;;;8.38;4.75;;;;;;;23.96;96.26;98273.13;5083964;28;20047;-83
2023/08/14 06:54:57;;;;;;;6.95;4.93;;;;;;;23.93;96.10;98273.75;5087450;28;20047;-82
2023/08/14 06:57:41;;;;;;;5.38;4.88;;;;;;;24.41;95.24;98274.31;5083697;28;20099;-82
2023/08/14 07:00:25;;;;;;;7.97;5.93;;;;;;;24.04;95.18;98272.47;5085056;28;20039;-82
2023/08/14 07:03:09;;;;;;;9.48;5.40;;;;;;;23.87;95.76;98269.59;5083873;28;20089;-83
2023/08/14 07:05:53;;;;;;;8.10;4.72;;;;;;;24.20;95.50;98259.50;5079217;28;20044;-83
2023/08/14 07:08:38;;;;;;;5.93;5.03;;;;;;;24.43;95.18;98264.06;5081309;28;20468;-82
2023/08/14 07:11:22;;;;;;;5.50;4.85;;;;;;;24.88;93.97;98255.22;5082980;28;20043;-81
2023/08/14 07:14:07;;;;;;;6.35;4.40;;;;;;;24.80;93.81;98248.69;5086225;28;20530;-82
2023/08/14 07:16:50;;;;;;;6.07;4.20;;;;;;;24.46;93.33;98242.00;5080415;28;20513;-80
2023/08/14 07:19:35;;;;;;;5.57;3.85;;;;;;;24.63;93.76;98249.34;5079785;28;20405;-81
2023/08/14 07:22:19;;;;;;;5.68;3.88;;;;;;;24.62;93.26;98242.41;5081943;28;20035;-82
2023/08/14 07:25:05;;;;;;;5.75;3.30;;;;;;;24.56;93.41;98240.97;5077804;28;20432;-81
2023/08/14 07:27:49;;;;;;;4.85;3.45;;;;;;;24.70;93.39;98243.53;5080171;28;20086;-82
2023/08/14 07:30:33;;;;;;;6.30;3.17;;;;;;;24.87;92.97;98234.84;5082385;28;20048;-80
2023/08/14 07:33:17;;;;;;;3.92;3.30;;;;;;;25.08;92.99;98240.44;5078737;28;20418;-79
2023/08/14 07:36:03;;;;;;;5.85;3.33;;;;;;;25.33;92.13;98238.94;5085565;28;20506;-78
2023/08/14 07:38:47;;;;;;;2.80;2.25;;;;;;;25.36;91.63;98232.16;5084837;28;20138;-80
2023/08/14 07:41:31;;;;;;;3.55;2.53;;;;;;;25.28;91.04;98235.59;5081913;28;21792;-82
2023/08/14 07:44:15;;;;;;;3.53;2.70;;;;;;;25.30;90.98;98241.44;5080000;28;20089;-81
2023/08/14 07:46:59;;;;;;;5.97;3.10;;;;;;;25.51;90.03;98237.09;5078522;28;20104;-81
2023/08/14 07:49:43;;;;;;;3.22;2.03;;;;;;;25.27;89.65;98239.38;5078455;28;20521;-81
2023/08/14 07:52:30;;;;;;;6.38;1.77;;;;;;;25.46;89.44;98229.16;5081789;28;20505;-81
2023/08/14 07:55:14;;;;;;;3.08;1.48;;;;;;;25.36;89.64;98240.22;5077825;28;20098;-81
2023/08/14 07:57:58;;;;;;;3.03;1.10;;;;;;;25.50;89.06;98251.63;5082326;28;20576;-80
2023/08/14 08:00:42;;;;;;;2.45;1.23;;;;;;;25.39;89.33;98234.97;5078244;28;20114;-81
2023/08/14 08:03:26;;;;;;;1.30;1.20;;;;;;;25.37;89.01;98250.63;5080191;28;20035;-80
2023/08/14 08:06:11;;;;;;;2.13;1.15;;;;;;;25.48;89.27;98242.31;5080612;28;20093;-80
2023/08/14 08:08:55;;;;;;;3.35;1.50;;;;;;;25.45;88.34;98238.31;5075004;28;20195;-80
2023/08/14 08:11:39;;;;;;;1.92;1.40;;;;;;;25.17;89.16;98249.31;5078323;28;20083;-80
2023/08/14 08:14:25;;;;;;;3.45;1.67;;;;;;;25.43;88.51;98245.09;5078534;28;20121;-80
2023/08/14 08:17:09;;;;;;;2.17;1.60;;;;;;;25.24;88.16;98241.59;5082058;28;20109;-80
2023/08/14 08:19:53;;;;;;;3.28;1.60;;;;;;;25.46;88.05;98234.53;5080482;28;20090;-80
2023/08/14 08:22:37;;;;;;;1.60;1.50;;;;;;;25.17;88.80;98240.47;5082311;28;20090;-80
2023/08/14 08:25:21;;;;;;;3.10;1.50;;;;;;;25.42;88.14;98249.69;5081779;28;20437;-81
2023/08/14 08:28:05;;;;;;;2.05;1.83;;;;;;;25.51;88.09;98242.47;5076029;28;20128;-80
2023/08/14 08:30:49;;;;;;;2.40;1.80;;;;;;;24.98;89.06;98246.09;5074968;28;20142;-81
2023/08/14 08:33:34;;;;;;;1.90;1.73;;;;;;;25.12;88.45;98244.06;5075985;28;20082;-80
2023/08/14 08:36:18;;;;;;;3.47;2.10;;;;;;;25.03;88.92;98244.03;5078905;28;20090;-81
2023/08/14 08:39:04;;;;;;;2.03;1.88;;;;;;;24.98;88.72;98246.09;5081760;28;20047;-81
2023/08/14 08:41:49;;;;;;;4.15;2.10;;;;;;;24.90;89.25;98243.03;5078730;28;20113;-80
2023/08/14 08:44:36;;;;;;;3.22;1.95;;;;;;;24.89;89.22;98244.16;5077727;28;20086;-80
2023/08/14 08:47:27;;;;;;;2.22;2.03;;;;;;;25.01;89.64;98245.47;5081054;28;20081;-81
2023/08/14 08:50:11;;;;;;;3.03;2.10;;;;;;;25.22;89.99;98243.00;5078986;28;20398;-81
2023/08/14 08:52:56;;;;;;;1.70;1.60;;;;;;;25.49;89.14;98247.34;5077074;28;20039;-80
2023/08/14 08:55:40;;;;;;;2.88;2.13;;;;;;;25.39;88.44;98239.59;5076283;28;20127;-80
2023/08/14 08:58:26;;;;;;;2.47;1.80;;;;;;;25.41;88.41;98229.31;5080899;28;20085;-81
2023/08/14 09:01:10;;;;;;;1.73;1.60;;;;;;;25.35;88.80;98231.34;5081042;28;20059;-80
2023/08/14 09:03:54;;;;;;;3.25;1.60;;;;;;;25.46;88.87;98229.16;5083936;28;20500;-81
2023/08/14 09:06:41;;;;;;;2.70;1.80;;;;;;;25.73;87.81;98221.16;5078155;28;20047;-81
2023/08/14 09:09:25;;;;;;;4.32;2.30;;;;;;;25.88;87.60;98225.25;5076630;28;20105;-81
2023/08/14 09:12:10;;;;;;;2.38;2.10;;;;;;;25.71;87.14;98224.16;5078190;28;20086;-81
2023/08/14 09:15:09;;;;;;;2.63;1.80;;;;;;;26.25;85.76;98225.75;5079231;28;20100;-81
2023/08/14 09:17:54;;;;;;;2.28;2.08;;;;;;;26.37;85.84;98217.81;5077466;28;20508;-81
2023/08/14 09:20:39;;;;;;;3.13;2.30;;;;;;;26.56;85.50;98224.75;5078034;28;20746;-81
2023/08/14 09:23:25;;;;;;;5.53;2.20;;;;;;;26.65;84.48;98217.41;5082192;28;20523;-81
2023/08/14 09:26:12;;;;;;;3.70;2.25;;;;;;;26.61;84.97;98221.88;5077879;28;20113;-80
2023/08/14 09:28:57;;;;;;;3.45;2.20;;;;;;;26.55;84.85;98212.41;5081057;28;20039;-81
2023/08/14 09:31:45;;;;;;;4.00;2.45;;;;;;;26.62;84.23;98220.75;5078203;28;20070;-81
2023/08/14 09:34:30;;;;;;;6.32;3.05;;;;;;;26.80;83.60;98218.78;5080112;28;20044;-80
2023/08/14 09:37:17;;;;;;;2.80;2.20;;;;;;;27.08;83.92;98217.59;5076221;28;20131;-81
2023/08/14 09:40:09;;;;;;;5.75;2.28;;;;;;;26.94;83.36;98212.44;5083764;28;20100;-81
2023/08/14 09:42:55;;;;;;;3.28;2.58;;;;;;;26.90;83.81;98209.59;5078653;28;20039;-81
2023/08/14 09:45:39;;;;;;;3.65;2.42;;;;;;;26.74;83.85;98213.91;5079137;28;20044;-80
2023/08/14 09:48:39;;;;;;;2.90;2.38;;;;;;;26.59;84.07;98213.31;5076632;28;20497;-81
2023/08/14 09:51:23;;;;;;;3.83;2.28;;;;;;;26.59;84.90;98199.88;5081771;28;20044;-81
2023/08/14 09:54:09;;;;;;;3.17;2.40;;;;;;;26.20;85.67;98204.41;5078557;28;20059;-80
2023/08/14 09:56:54;;;;;;;4.10;2.90;;;;;;;26.13;86.76;98196.78;5082384;28;20078;-81
2023/08/14 09:59:40;;;;;;;5.15;3.53;;;;;;;26.18;86.70;98201.25;5079553;28;20124;-80
2023/08/14 10:02:25;;;;;;;5.80;4.10;;;;;;;26.23;86.81;98201.06;5079923;28;20389;-80
2023/08/14 10:05:10;;;;;;;4.93;3.33;;;;;;;25.81;87.43;98188.91;5082500;28;20035;-80
2023/08/14 10:07:55;;;;;;;4.90;3.50;;;;;;;25.49;88.50;98185.56;5086673;28;20555;-80
2023/08/14 10:10:40;;;;;;;4.22;3.65;;;;;;;25.74;90.25;98183.19;5077754;28;20047;-81
2023/08/14 10:13:25;;;;;;;8.88;4.28;;;;;;;26.14;89.15;98187.59;5085184;28;20517;-80
2023/08/14 10:16:14;;;;;;;4.03;3.28;;;;;;;26.17;89.07;98192.38;5084312;28;20035;-81
2023/08/14 10:19:04;;;;;;;4.72;3.03;;;;;;;26.23;89.33;98190.31;5089019;28;20059;-82
2023/08/14 10:21:52;;;;;;;4.53;2.60;;;;;;;26.07;89.76;98188.09;5084295;28;20536;-80
2023/08/14 10:24:37;;;;;;;3.72;2.17;;;;;;;25.74;89.32;98185.09;5078185;28;20089;-80
2023/08/14 10:27:22;;;;;;;3.97;2.22;;;;;;;25.60;90.03;98167.25;5078833;28;20406;-81
2023/08/14 10:30:08;;;;;;;2.38;2.17;;;;;;;26.08;90.09;98170.84;5084026;28;20101;-81
2023/08/14 10:32:53;;;;;;;3.17;2.63;;;;;;;26.14;89.64;98184.13;5082960;28;20114;-81
2023/08/14 10:35:47;;;;;;;3.92;3.20;;;;;;;26.07;88.52;98168.50;5089174;28;20154;-81
2023/08/14 10:38:42;;;;;;;4.82;3.47;;;;;;;26.11;89.38;98166.72;5082830;28;20050;-81
2023/08/14 10:41:33;;;;;;;5.20;3.10;;;;;;;25.97;90.47;98175.00;5079629;28;20050;-81
2023/08/14 10:44:17;;;;;;;11.85;3.08;;;;;;;25.53;90.69;98165.03;5080425;28;20027;-81
2023/08/14 10:47:11;;;;;;;3.30;3.00;;;;;;;25.56;91.11;98160.16;5079275;28;20505;-80
2023/08/14 10:49:56;;;;;;;5.80;3.10;;;;;;;25.53;92.05;98159.66;5081379;28;20044;-80
2023/08/14 10:52:44;;;;;;;5.82;3.65;;;;;;;25.44;91.53;98166.91;5078849;28;20063;-81
2023/08/14 10:55:40;;;;;;;4.53;3.30;;;;;;;25.64;90.60;98164.72;5081939;28;20047;-80
2023/08/14 10:58:31;;;;;;;6.15;3.97;;;;;;;25.53;91.42;98158.88;5078412;28;20071;-81
2023/08/14 11:01:17;;;;;;;7.50;4.03;;;;;;;25.83;91.34;98152.84;5081466;28;20673;-80
2023/08/14 11:04:05;;;;;;;4.75;3.88;;;;;;;25.76;91.40;98153.31;5082091;28;20039;-81
2023/08/14 11:07:11;;;;;;;4.88;3.60;;;;;;;26.11;89.75;98147.91;5085207;28;20513;-81
2023/08/14 11:09:59;;;;;;;5.80;3.60;;;;;;;26.33;89.95;98154.97;5076573;28;20406;-80
2023/08/14 11:12:43;;;;;;;7.10;4.95;;;;;;;26.11;89.93;98150.59;5084641;28;20139;-81
2023/08/14 11:15:31;;;;;;;5.38;4.22;;;;;;;26.43;89.46;98145.78;5079507;28;20126;-80
2023/08/14 11:18:15;;;;;;;8.30;4.82;;;;;;;26.14;89.07;98147.25;5081175;28;20078;-81
2023/08/14 11:21:00;;;;;;;5.15;3.95;;;;;;;25.90;89.51;98137.81;5083158;28;20051;-80
2023/08/14 11:23:44;;;;;;;6.53;4.30;;;;;;;25.50;90.89;98133.41;5084646;28;20109;-80
2023/08/14 11:26:31;;;;;;;6.47;4.20;;;;;;;25.94;89.79;98124.53;5076033;28;20543;-80
2023/08/14 11:29:15;;;;;;;6.68;4.72;;;;;;;25.54;91.25;98117.47;5083793;28;20105;-79
2023/08/14 11:32:00;;;;;;;4.93;3.90;;;;;;;25.87;90.57;98140.34;5080265;28;20082;-80
2023/08/14 11:34:46;;;;;;;6.18;3.95;;;;;;;25.94;90.52;98135.28;5076522;28;20478;-80
2023/08/14 11:37:30;;;;;;;8.43;5.10;;;;;;;25.90;100.00;98137.03;5076895;28;20043;-80
2023/08/14 11:40:17;;;;;;;6.28;4.68;;;;;;;25.93;100.00;98122.94;5077797;28;20398;-80
2023/08/14 11:43:01;;;;;;;10.88;4.82;;;;;;;25.94;100.00;98125.31;5083942;28;20042;-80
2023/08/14 11:45:45;;;;;;;7.35;5.68;;;;;;;25.92;100.00;98121.38;5083391;28;20105;-80
2023/08/14 11:48:32;;;;;;;7.18;5.38;;;;;;;25.97;100.00;98118.53;5083425;28;20039;-80
2023/08/14 11:51:16;;;;;;;8.70;5.13;;;;;;;26.03;100.00;98114.56;5079443;28;20096;-80
2023/08/14 11:54:01;;;;;;;7.05;4.63;;;;;;;25.81;100.00;98115.53;5082678;28;20493;-80
2023/08/14 11:56:47;;;;;;;7.18;4.43;;;;;;;25.90;100.00;98110.94;5081332;28;20094;-80
2023/08/14 11:59:31;;;;;;;8.88;4.80;;;;;;;25.46;100.00;98100.19;5079680;28;20639;-80
2023/08/14 12:02:18;;;;;;;7.75;4.28;;;;;;;25.69;100.00;98101.97;5085309;28;20500;-81
2023/08/14 12:05:02;;;;;;;8.25;4.57;;;;;;;26.22;100.00;98102.66;5076436;28;20456;-81
2023/08/14 12:07:47;;;;;;;7.10;4.80;;;;;;;26.15;100.00;98100.44;5085020;28;20047;-81
2023/08/14 12:10:32;;;;;;;7.75;4.22;;;;;;;26.09;100.00;98099.81;5080484;28;20093;-80
2023/08/14 12:13:20;;;;;;;10.80;4.38;;;;;;;26.02;100.00;98091.47;5078530;28;20071;-80
2023/08/14 12:16:08;;;;;;;8.20;4.43;;;;;;;26.01;100.00;98087.19;5086130;28;20059;-80
2023/08/14 12:18:52;;;;;;;6.45;4.45;;;;;;;25.99;100.00;98089.41;5078166;28;20446;-80
2023/08/14 12:21:37;;;;;;;5.95;4.05;;;;;;;25.75;100.00;98085.38;5074841;28;20035;-80
2023/08/14 12:24:21;;;;;;;5.85;3.97;;;;;;;25.79;100.00;98080.94;5079494;28;20062;-80
2023/08/14 12:27:15;;;;;;;9.20;5.00;;;;;;;25.91;100.00;98079.47;5078233;28;20073;-80
2023/08/14 12:29:59;;;;;;;6.18;4.30;;;;;;;25.97;100.00;98072.81;5077914;28;20069;-80
2023/08/14 12:32:46;;;;;;;9.77;4.85;;;;;;;26.07;100.00;98075.16;5079956;28;20071;-80
2023/08/14 12:35:31;;;;;;;6.05;4.03;;;;;;;26.07;100.00;98075.16;5081509;28;20181;-79
2023/08/14 12:38:15;;;;;;;6.88;4.53;;;;;;;26.15;100.00;98078.16;5083785;28;20146;-81
2023/08/14 12:40:58;;;;;;;8.68;4.70;;;;;;;26.07;100.00;98077.84;5082824;28;20051;-80
2023/08/14 12:43:42;;;;;;;5.22;4.50;;;;;;;26.31;100.00;98081.88;5074615;28;20058;-81
2023/08/14 12:46:26;;;;;;;7.03;4.80;;;;;;;26.16;100.00;98074.34;5080462;28;20500;-80
2023/08/14 12:49:10;;;;;;;5.57;4.40;;;;;;;26.03;100.00;98066.16;5079529;28;20124;-81
2023/08/14 12:51:54;;;;;;;7.10;4.80;;;;;;;26.08;100.00;98076.72;5079357;28;20078;-80
2023/08/14 12:54:39;;;;;;;6.30;4.35;;;;;;;26.30;100.00;98072.25;5080770;28;20114;-81